Tuxedo, New York
Current Conditions -  °F | °C
As of 1:10 PM on Thursday 23 Oct 2014 (Local Time) from KFWN Reporting Station
Light Rain Light Rain  
Wind Chill: 55°   Ceiling: 2900
Heat Index: 55°   Visibility: 10mi
Dew Point: 46°   Wind: 9mph
Humidity: 72%   Direction: 340°NNW
Pressure: 29.74"   Gusts: NA
Location:  41.1969°N, 74.224°W
Report Text: KFWN 231710Z AUTO 34008KT 10SM -RA BKN029 OVC041 13/08 A2974 RMK AO2 P0000 T01280078
Loading
Personal Weather Stations






























Interactive Weather Map New forecast layout! Learn more

10-Day Weather Forecast

Advertisements
Track Severe Weather on mobile